sensor_id;sensor_type;location;lat;lon;timestamp;P1;durP1;ratioP1;P2;durP2;ratioP2
20336;SDS011;10326;53.660;10.200;2023-02-07T00:01:32;10.40;;;9.37;;
20336;SDS011;10326;53.660;10.200;2023-02-07T00:03:59;10.23;;;9.20;;
20336;SDS011;10326;53.660;10.200;2023-02-07T00:06:27;10.50;;;9.40;;
20336;SDS011;10326;53.660;10.200;2023-02-07T00:08:59;11.43;;;9.53;;
20336;SDS011;10326;53.660;10.200;2023-02-07T00:11:27;9.83;;;8.90;;
20336;SDS011;10326;53.660;10.200;2023-02-07T00:13:55;10.77;;;9.53;;
20336;SDS011;10326;53.660;10.200;2023-02-07T00:16:25;11.67;;;8.90;;
20336;SDS011;10326;53.660;10.200;2023-02-07T00:18:54;9.80;;;8.80;;
20336;SDS011;10326;53.660;10.200;2023-02-07T00:21:22;10.90;;;9.00;;
20336;SDS011;10326;53.660;10.200;2023-02-07T00:23:50;9.97;;;8.97;;
20336;SDS011;10326;53.660;10.200;2023-02-07T00:26:19;9.83;;;8.83;;
20336;SDS011;10326;53.660;10.200;2023-02-07T00:28:48;9.87;;;8.87;;
20336;SDS011;10326;53.660;10.200;2023-02-07T00:31:17;9.53;;;8.53;;
20336;SDS011;10326;53.660;10.200;2023-02-07T00:33:48;9.63;;;8.50;;
20336;SDS011;10326;53.660;10.200;2023-02-07T00:36:18;9.90;;;8.40;;
20336;SDS011;10326;53.660;10.200;2023-02-07T00:38:49;9.90;;;8.90;;
20336;SDS011;10326;53.660;10.200;2023-02-07T00:41:16;10.63;;;8.90;;
20336;SDS011;10326;53.660;10.200;2023-02-07T00:43:44;10.43;;;8.63;;
20336;SDS011;10326;53.660;10.200;2023-02-07T00:46:13;9.73;;;8.63;;
20336;SDS011;10326;53.660;10.200;2023-02-07T00:48:40;10.17;;;8.00;;
20336;SDS011;10326;53.660;10.200;2023-02-07T00:51:09;9.27;;;8.27;;
20336;SDS011;10326;53.660;10.200;2023-02-07T00:53:39;10.80;;;8.53;;
20336;SDS011;10326;53.660;10.200;2023-02-07T00:56:06;9.23;;;8.30;;
20336;SDS011;10326;53.660;10.200;2023-02-07T00:58:34;9.60;;;8.70;;
20336;SDS011;10326;53.660;10.200;2023-02-07T01:01:01;10.00;;;9.00;;
20336;SDS011;10326;53.660;10.200;2023-02-07T01:03:30;9.17;;;8.30;;
20336;SDS011;10326;53.660;10.200;2023-02-07T01:05:57;10.57;;;8.93;;
20336;SDS011;10326;53.660;10.200;2023-02-07T01:08:26;8.83;;;7.93;;
20336;SDS011;10326;53.660;10.200;2023-02-07T01:10:53;10.03;;;8.20;;
20336;SDS011;10326;53.660;10.200;2023-02-07T01:13:20;10.77;;;8.90;;
20336;SDS011;10326;53.660;10.200;2023-02-07T01:15:47;9.63;;;8.50;;
20336;SDS011;10326;53.660;10.200;2023-02-07T01:18:15;8.83;;;7.87;;
20336;SDS011;10326;53.660;10.200;2023-02-07T01:20:42;9.10;;;7.90;;
20336;SDS011;10326;53.660;10.200;2023-02-07T01:23:09;9.43;;;8.53;;
20336;SDS011;10326;53.660;10.200;2023-02-07T01:25:40;8.20;;;7.40;;
20336;SDS011;10326;53.660;10.200;2023-02-07T01:28:09;9.63;;;7.90;;
20336;SDS011;10326;53.660;10.200;2023-02-07T01:30:37;8.63;;;7.83;;
20336;SDS011;10326;53.660;10.200;2023-02-07T01:33:05;8.50;;;7.40;;
20336;SDS011;10326;53.660;10.200;2023-02-07T01:35:33;9.43;;;7.80;;
20336;SDS011;10326;53.660;10.200;2023-02-07T01:38:01;9.47;;;8.07;;
20336;SDS011;10326;53.660;10.200;2023-02-07T01:40:29;8.23;;;7.43;;
20336;SDS011;10326;53.660;10.200;2023-02-07T01:42:58;8.70;;;7.60;;
20336;SDS011;10326;53.660;10.200;2023-02-07T01:45:26;9.53;;;8.13;;
20336;SDS011;10326;53.660;10.200;2023-02-07T01:47:57;10.10;;;8.57;;
20336;SDS011;10326;53.660;10.200;2023-02-07T01:50:29;8.67;;;7.73;;
20336;SDS011;10326;53.660;10.200;2023-02-07T01:52:57;9.97;;;7.90;;
20336;SDS011;10326;53.660;10.200;2023-02-07T01:55:26;9.13;;;7.70;;
20336;SDS011;10326;53.660;10.200;2023-02-07T01:57:56;8.40;;;7.60;;
20336;SDS011;10326;53.660;10.200;2023-02-07T02:00:26;9.43;;;8.53;;
20336;SDS011;10326;53.660;10.200;2023-02-07T02:02:54;8.53;;;7.47;;
20336;SDS011;10326;53.660;10.200;2023-02-07T02:05:21;8.03;;;7.00;;
20336;SDS011;10326;53.660;10.200;2023-02-07T02:07:49;8.20;;;7.40;;
20336;SDS011;10326;53.660;10.200;2023-02-07T02:10:17;10.17;;;8.37;;
20336;SDS011;10326;53.660;10.200;2023-02-07T02:15:46;9.40;;;8.33;;
20336;SDS011;10326;53.660;10.200;2023-02-07T02:18:42;8.77;;;7.87;;
20336;SDS011;10326;53.660;10.200;2023-02-07T02:21:41;9.77;;;7.97;;
20336;SDS011;10326;53.660;10.200;2023-02-07T02:24:52;8.57;;;7.60;;
20336;SDS011;10326;53.660;10.200;2023-02-07T02:27:52;8.97;;;8.07;;
20336;SDS011;10326;53.660;10.200;2023-02-07T02:30:51;8.43;;;7.63;;
20336;SDS011;10326;53.660;10.200;2023-02-07T02:33:39;8.83;;;7.93;;
20336;SDS011;10326;53.660;10.200;2023-02-07T02:36:14;9.07;;;8.17;;
20336;SDS011;10326;53.660;10.200;2023-02-07T02:38:52;8.90;;;8.00;;
20336;SDS011;10326;53.660;10.200;2023-02-07T02:41:28;8.67;;;7.77;;
20336;SDS011;10326;53.660;10.200;2023-02-07T02:44:06;9.67;;;8.50;;
20336;SDS011;10326;53.660;10.200;2023-02-07T02:46:39;9.73;;;8.73;;
20336;SDS011;10326;53.660;10.200;2023-02-07T02:49:10;9.07;;;7.73;;
20336;SDS011;10326;53.660;10.200;2023-02-07T02:51:40;8.47;;;7.67;;
20336;SDS011;10326;53.660;10.200;2023-02-07T02:57:05;9.90;;;8.43;;
20336;SDS011;10326;53.660;10.200;2023-02-07T03:00:03;8.93;;;8.03;;
20336;SDS011;10326;53.660;10.200;2023-02-07T03:02:57;9.43;;;8.43;;
20336;SDS011;10326;53.660;10.200;2023-02-07T03:05:45;8.50;;;7.70;;
20336;SDS011;10326;53.660;10.200;2023-02-07T03:08:24;8.30;;;7.53;;
20336;SDS011;10326;53.660;10.200;2023-02-07T03:11:04;10.50;;;8.43;;
20336;SDS011;10326;53.660;10.200;2023-02-07T03:13:36;9.97;;;8.27;;
20336;SDS011;10326;53.660;10.200;2023-02-07T03:16:19;9.50;;;8.50;;
20336;SDS011;10326;53.660;10.200;2023-02-07T03:18:51;9.30;;;8.40;;
20336;SDS011;10326;53.660;10.200;2023-02-07T03:21:27;10.27;;;8.63;;
20336;SDS011;10326;53.660;10.200;2023-02-07T03:23:59;9.13;;;8.33;;
20336;SDS011;10326;53.660;10.200;2023-02-07T03:26:37;9.70;;;8.70;;
20336;SDS011;10326;53.660;10.200;2023-02-07T03:29:08;9.67;;;8.67;;
20336;SDS011;10326;53.660;10.200;2023-02-07T03:31:37;10.73;;;8.63;;
20336;SDS011;10326;53.660;10.200;2023-02-07T03:34:10;10.37;;;8.70;;
20336;SDS011;10326;53.660;10.200;2023-02-07T03:36:45;10.07;;;9.07;;
20336;SDS011;10326;53.660;10.200;2023-02-07T03:39:19;10.20;;;9.07;;
20336;SDS011;10326;53.660;10.200;2023-02-07T03:41:48;10.53;;;9.47;;
20336;SDS011;10326;53.660;10.200;2023-02-07T03:44:21;10.33;;;9.33;;
20336;SDS011;10326;53.660;10.200;2023-02-07T03:46:51;10.60;;;9.50;;
20336;SDS011;10326;53.660;10.200;2023-02-07T03:49:19;11.43;;;10.10;;
20336;SDS011;10326;53.660;10.200;2023-02-07T03:51:48;10.33;;;9.27;;
20336;SDS011;10326;53.660;10.200;2023-02-07T03:54:16;12.03;;;9.57;;
20336;SDS011;10326;53.660;10.200;2023-02-07T03:56:43;11.93;;;10.33;;
20336;SDS011;10326;53.660;10.200;2023-02-07T03:59:10;11.43;;;9.87;;
20336;SDS011;10326;53.660;10.200;2023-02-07T04:01:37;10.60;;;9.50;;
20336;SDS011;10326;53.660;10.200;2023-02-07T04:04:06;11.23;;;10.07;;
20336;SDS011;10326;53.660;10.200;2023-02-07T04:06:34;11.40;;;10.00;;
20336;SDS011;10326;53.660;10.200;2023-02-07T04:09:03;10.60;;;9.53;;
20336;SDS011;10326;53.660;10.200;2023-02-07T04:11:30;11.13;;;9.93;;
20336;SDS011;10326;53.660;10.200;2023-02-07T04:13:57;10.37;;;9.27;;
20336;SDS011;10326;53.660;10.200;2023-02-07T04:16:24;11.40;;;10.30;;
20336;SDS011;10326;53.660;10.200;2023-02-07T04:18:51;10.87;;;9.77;;
20336;SDS011;10326;53.660;10.200;2023-02-07T04:21:18;11.43;;;10.33;;
20336;SDS011;10326;53.660;10.200;2023-02-07T04:23:45;11.50;;;10.40;;
20336;SDS011;10326;53.660;10.200;2023-02-07T04:26:14;11.20;;;10.10;;
20336;SDS011;10326;53.660;10.200;2023-02-07T04:28:40;12.20;;;10.57;;
20336;SDS011;10326;53.660;10.200;2023-02-07T04:31:08;11.00;;;9.97;;
20336;SDS011;10326;53.660;10.200;2023-02-07T04:33:34;11.33;;;10.23;;
20336;SDS011;10326;53.660;10.200;2023-02-07T04:36:02;11.00;;;9.90;;
20336;SDS011;10326;53.660;10.200;2023-02-07T04:38:30;11.30;;;10.20;;
20336;SDS011;10326;53.660;10.200;2023-02-07T04:40:58;12.13;;;10.50;;
20336;SDS011;10326;53.660;10.200;2023-02-07T04:43:28;11.70;;;10.50;;
20336;SDS011;10326;53.660;10.200;2023-02-07T04:45:56;11.27;;;10.17;;
20336;SDS011;10326;53.660;10.200;2023-02-07T04:48:23;11.83;;;10.63;;
20336;SDS011;10326;53.660;10.200;2023-02-07T04:50:50;11.40;;;9.93;;
20336;SDS011;10326;53.660;10.200;2023-02-07T04:53:17;11.20;;;10.20;;
20336;SDS011;10326;53.660;10.200;2023-02-07T04:55:46;11.30;;;10.10;;
20336;SDS011;10326;53.660;10.200;2023-02-07T04:58:13;11.50;;;9.90;;
20336;SDS011;10326;53.660;10.200;2023-02-07T05:00:42;10.67;;;9.70;;
20336;SDS011;10326;53.660;10.200;2023-02-07T05:03:09;11.50;;;10.10;;
20336;SDS011;10326;53.660;10.200;2023-02-07T05:05:36;12.33;;;11.03;;
20336;SDS011;10326;53.660;10.200;2023-02-07T05:08:04;11.97;;;10.33;;
20336;SDS011;10326;53.660;10.200;2023-02-07T05:10:32;11.17;;;10.03;;
20336;SDS011;10326;53.660;10.200;2023-02-07T05:12:59;11.93;;;10.73;;
20336;SDS011;10326;53.660;10.200;2023-02-07T05:15:27;11.37;;;10.17;;
20336;SDS011;10326;53.660;10.200;2023-02-07T05:17:56;12.07;;;10.27;;
20336;SDS011;10326;53.660;10.200;2023-02-07T05:20:25;12.27;;;11.00;;
20336;SDS011;10326;53.660;10.200;2023-02-07T05:22:52;11.13;;;9.73;;
20336;SDS011;10326;53.660;10.200;2023-02-07T05:25:19;11.83;;;10.63;;
20336;SDS011;10326;53.660;10.200;2023-02-07T05:27:46;12.37;;;11.13;;
20336;SDS011;10326;53.660;10.200;2023-02-07T05:30:13;12.10;;;10.83;;
20336;SDS011;10326;53.660;10.200;2023-02-07T05:32:40;11.60;;;10.40;;
20336;SDS011;10326;53.660;10.200;2023-02-07T05:35:26;12.53;;;10.87;;
20336;SDS011;10326;53.660;10.200;2023-02-07T05:37:53;11.43;;;10.30;;
20336;SDS011;10326;53.660;10.200;2023-02-07T05:40:20;12.47;;;11.27;;
20336;SDS011;10326;53.660;10.200;2023-02-07T05:42:47;12.80;;;11.40;;
20336;SDS011;10326;53.660;10.200;2023-02-07T05:45:14;11.77;;;10.40;;
20336;SDS011;10326;53.660;10.200;2023-02-07T05:47:42;12.37;;;11.13;;
20336;SDS011;10326;53.660;10.200;2023-02-07T05:50:09;12.47;;;10.90;;
20336;SDS011;10326;53.660;10.200;2023-02-07T05:52:37;11.83;;;10.57;;
20336;SDS011;10326;53.660;10.200;2023-02-07T05:55:04;12.03;;;10.83;;
20336;SDS011;10326;53.660;10.200;2023-02-07T05:57:33;12.17;;;11.03;;
20336;SDS011;10326;53.660;10.200;2023-02-07T06:00:00;11.67;;;10.47;;
20336;SDS011;10326;53.660;10.200;2023-02-07T06:02:37;11.73;;;10.53;;
20336;SDS011;10326;53.660;10.200;2023-02-07T06:05:04;11.93;;;10.77;;
20336;SDS011;10326;53.660;10.200;2023-02-07T06:07:32;12.23;;;10.93;;
20336;SDS011;10326;53.660;10.200;2023-02-07T06:10:01;12.23;;;10.50;;
20336;SDS011;10326;53.660;10.200;2023-02-07T06:12:28;12.73;;;11.50;;
20336;SDS011;10326;53.660;10.200;2023-02-07T06:14:55;12.27;;;10.57;;
20336;SDS011;10326;53.660;10.200;2023-02-07T06:17:22;11.57;;;10.40;;
20336;SDS011;10326;53.660;10.200;2023-02-07T06:19:49;11.30;;;9.90;;
20336;SDS011;10326;53.660;10.200;2023-02-07T06:22:16;13.37;;;11.13;;
20336;SDS011;10326;53.660;10.200;2023-02-07T06:24:44;13.10;;;11.17;;
20336;SDS011;10326;53.660;10.200;2023-02-07T06:27:12;12.37;;;11.07;;
20336;SDS011;10326;53.660;10.200;2023-02-07T06:29:39;12.43;;;11.23;;
20336;SDS011;10326;53.660;10.200;2023-02-07T06:32:06;13.30;;;11.73;;
20336;SDS011;10326;53.660;10.200;2023-02-07T06:34:33;14.10;;;11.83;;
20336;SDS011;10326;53.660;10.200;2023-02-07T06:37:00;12.90;;;11.60;;
20336;SDS011;10326;53.660;10.200;2023-02-07T06:39:27;12.47;;;11.23;;
20336;SDS011;10326;53.660;10.200;2023-02-07T06:41:54;12.67;;;11.37;;
20336;SDS011;10326;53.660;10.200;2023-02-07T06:44:23;14.10;;;11.80;;
20336;SDS011;10326;53.660;10.200;2023-02-07T06:46:50;12.40;;;11.10;;
20336;SDS011;10326;53.660;10.200;2023-02-07T06:49:17;12.30;;;10.97;;
20336;SDS011;10326;53.660;10.200;2023-02-07T06:51:44;12.27;;;11.03;;
20336;SDS011;10326;53.660;10.200;2023-02-07T06:54:10;13.07;;;11.10;;
20336;SDS011;10326;53.660;10.200;2023-02-07T06:56:37;13.93;;;11.07;;
20336;SDS011;10326;53.660;10.200;2023-02-07T06:59:04;12.90;;;11.50;;
20336;SDS011;10326;53.660;10.200;2023-02-07T07:01:33;12.93;;;11.40;;
20336;SDS011;10326;53.660;10.200;2023-02-07T07:04:00;12.97;;;11.57;;
20336;SDS011;10326;53.660;10.200;2023-02-07T07:06:27;12.73;;;11.43;;
20336;SDS011;10326;53.660;10.200;2023-02-07T07:08:54;12.93;;;11.57;;
20336;SDS011;10326;53.660;10.200;2023-02-07T07:11:21;12.27;;;11.07;;
20336;SDS011;10326;53.660;10.200;2023-02-07T07:13:48;13.40;;;12.10;;
20336;SDS011;10326;53.660;10.200;2023-02-07T07:16:15;13.50;;;12.00;;
20336;SDS011;10326;53.660;10.200;2023-02-07T07:18:43;12.97;;;11.67;;
20336;SDS011;10326;53.660;10.200;2023-02-07T07:21:11;14.87;;;12.47;;
20336;SDS011;10326;53.660;10.200;2023-02-07T07:23:38;13.33;;;11.93;;
20336;SDS011;10326;53.660;10.200;2023-02-07T07:26:05;13.40;;;12.00;;
20336;SDS011;10326;53.660;10.200;2023-02-07T07:28:32;12.90;;;11.60;;
20336;SDS011;10326;53.660;10.200;2023-02-07T07:31:02;13.70;;;12.30;;
20336;SDS011;10326;53.660;10.200;2023-02-07T07:33:31;13.20;;;11.90;;
20336;SDS011;10326;53.660;10.200;2023-02-07T07:36:00;13.10;;;11.73;;
20336;SDS011;10326;53.660;10.200;2023-02-07T07:38:28;16.03;;;12.03;;
20336;SDS011;10326;53.660;10.200;2023-02-07T07:40:56;14.00;;;12.60;;
20336;SDS011;10326;53.660;10.200;2023-02-07T07:43:23;13.20;;;11.87;;
20336;SDS011;10326;53.660;10.200;2023-02-07T07:45:52;15.13;;;12.87;;
20336;SDS011;10326;53.660;10.200;2023-02-07T07:48:21;12.70;;;11.40;;
20336;SDS011;10326;53.660;10.200;2023-02-07T07:50:49;14.03;;;12.43;;
20336;SDS011;10326;53.660;10.200;2023-02-07T07:53:18;13.17;;;11.83;;
20336;SDS011;10326;53.660;10.200;2023-02-07T07:55:47;15.40;;;13.50;;
20336;SDS011;10326;53.660;10.200;2023-02-07T07:58:15;14.50;;;12.17;;
20336;SDS011;10326;53.660;10.200;2023-02-07T08:00:44;13.60;;;12.20;;
20336;SDS011;10326;53.660;10.200;2023-02-07T08:03:11;13.87;;;12.47;;
20336;SDS011;10326;53.660;10.200;2023-02-07T08:05:39;14.43;;;12.57;;
20336;SDS011;10326;53.660;10.200;2023-02-07T08:08:06;13.70;;;12.40;;
20336;SDS011;10326;53.660;10.200;2023-02-07T08:10:34;15.40;;;12.90;;
20336;SDS011;10326;53.660;10.200;2023-02-07T08:13:01;14.67;;;12.97;;
20336;SDS011;10326;53.660;10.200;2023-02-07T08:15:29;15.30;;;12.97;;
20336;SDS011;10326;53.660;10.200;2023-02-07T08:17:56;14.80;;;13.20;;
20336;SDS011;10326;53.660;10.200;2023-02-07T08:20:24;14.57;;;12.57;;
20336;SDS011;10326;53.660;10.200;2023-02-07T08:22:51;16.23;;;13.30;;
20336;SDS011;10326;53.660;10.200;2023-02-07T08:25:18;14.97;;;13.37;;
20336;SDS011;10326;53.660;10.200;2023-02-07T08:27:47;15.77;;;14.07;;
20336;SDS011;10326;53.660;10.200;2023-02-07T08:30:14;16.97;;;14.13;;
20336;SDS011;10326;53.660;10.200;2023-02-07T08:32:43;16.50;;;14.60;;
20336;SDS011;10326;53.660;10.200;2023-02-07T08:35:10;16.93;;;14.80;;
20336;SDS011;10326;53.660;10.200;2023-02-07T08:37:37;18.67;;;15.37;;
20336;SDS011;10326;53.660;10.200;2023-02-07T08:40:05;16.93;;;14.60;;
20336;SDS011;10326;53.660;10.200;2023-02-07T08:42:33;18.47;;;14.93;;
20336;SDS011;10326;53.660;10.200;2023-02-07T08:45:01;17.27;;;14.90;;
20336;SDS011;10326;53.660;10.200;2023-02-07T08:47:29;17.77;;;15.00;;
20336;SDS011;10326;53.660;10.200;2023-02-07T08:49:57;18.27;;;15.70;;
20336;SDS011;10326;53.660;10.200;2023-02-07T08:52:24;16.73;;;14.40;;
20336;SDS011;10326;53.660;10.200;2023-02-07T08:54:51;18.03;;;15.90;;
20336;SDS011;10326;53.660;10.200;2023-02-07T08:57:18;19.20;;;15.90;;
20336;SDS011;10326;53.660;10.200;2023-02-07T08:59:47;17.77;;;15.23;;
20336;SDS011;10326;53.660;10.200;2023-02-07T09:02:15;18.03;;;15.53;;
20336;SDS011;10326;53.660;10.200;2023-02-07T09:04:42;18.60;;;15.37;;
20336;SDS011;10326;53.660;10.200;2023-02-07T09:07:09;17.90;;;15.30;;
20336;SDS011;10326;53.660;10.200;2023-02-07T09:09:37;16.07;;;14.37;;
20336;SDS011;10326;53.660;10.200;2023-02-07T09:12:04;16.53;;;14.63;;
20336;SDS011;10326;53.660;10.200;2023-02-07T09:14:32;17.97;;;14.83;;
20336;SDS011;10326;53.660;10.200;2023-02-07T09:16:59;15.87;;;14.17;;
20336;SDS011;10326;53.660;10.200;2023-02-07T09:19:28;15.70;;;13.60;;
20336;SDS011;10326;53.660;10.200;2023-02-07T09:21:55;16.63;;;14.00;;
20336;SDS011;10326;53.660;10.200;2023-02-07T09:24:22;17.53;;;14.87;;
20336;SDS011;10326;53.660;10.200;2023-02-07T09:26:49;15.53;;;13.83;;
20336;SDS011;10326;53.660;10.200;2023-02-07T09:29:16;16.87;;;14.43;;
20336;SDS011;10326;53.660;10.200;2023-02-07T09:31:43;17.57;;;14.77;;
20336;SDS011;10326;53.660;10.200;2023-02-07T09:34:10;16.83;;;14.80;;
20336;SDS011;10326;53.660;10.200;2023-02-07T09:36:39;17.03;;;14.80;;
20336;SDS011;10326;53.660;10.200;2023-02-07T09:39:06;16.83;;;14.83;;
20336;SDS011;10326;53.660;10.200;2023-02-07T09:41:35;17.90;;;15.03;;
20336;SDS011;10326;53.660;10.200;2023-02-07T09:44:13;18.40;;;15.73;;
20336;SDS011;10326;53.660;10.200;2023-02-07T09:46:46;17.30;;;14.93;;
20336;SDS011;10326;53.660;10.200;2023-02-07T09:49:22;17.90;;;15.40;;
20336;SDS011;10326;53.660;10.200;2023-02-07T09:52:01;17.77;;;15.37;;
20336;SDS011;10326;53.660;10.200;2023-02-07T09:54:32;17.50;;;15.33;;
20336;SDS011;10326;53.660;10.200;2023-02-07T09:57:04;17.37;;;15.47;;
20336;SDS011;10326;53.660;10.200;2023-02-07T09:59:37;17.90;;;15.67;;
20336;SDS011;10326;53.660;10.200;2023-02-07T10:02:16;18.63;;;15.70;;
20336;SDS011;10326;53.660;10.200;2023-02-07T10:04:48;16.97;;;15.07;;
20336;SDS011;10326;53.660;10.200;2023-02-07T10:07:18;17.00;;;14.97;;
20336;SDS011;10326;53.660;10.200;2023-02-07T10:09:46;18.07;;;15.33;;
20336;SDS011;10326;53.660;10.200;2023-02-07T10:12:23;20.00;;;16.50;;
20336;SDS011;10326;53.660;10.200;2023-02-07T10:15:10;20.67;;;16.57;;
20336;SDS011;10326;53.660;10.200;2023-02-07T10:18:05;19.20;;;16.70;;
20336;SDS011;10326;53.660;10.200;2023-02-07T10:20:49;18.43;;;16.03;;
20336;SDS011;10326;53.660;10.200;2023-02-07T10:23:31;20.43;;;16.37;;
20336;SDS011;10326;53.660;10.200;2023-02-07T10:26:15;19.40;;;16.23;;
20336;SDS011;10326;53.660;10.200;2023-02-07T10:28:52;20.77;;;17.40;;
20336;SDS011;10326;53.660;10.200;2023-02-07T10:31:44;22.80;;;17.50;;
20336;SDS011;10326;53.660;10.200;2023-02-07T10:34:17;18.83;;;16.80;;
20336;SDS011;10326;53.660;10.200;2023-02-07T10:36:49;21.27;;;17.43;;
20336;SDS011;10326;53.660;10.200;2023-02-07T10:39:20;19.83;;;17.57;;
20336;SDS011;10326;53.660;10.200;2023-02-07T10:41:52;22.47;;;18.67;;
20336;SDS011;10326;53.660;10.200;2023-02-07T10:44:21;21.77;;;18.03;;
20336;SDS011;10326;53.660;10.200;2023-02-07T10:46:52;22.53;;;18.73;;
20336;SDS011;10326;53.660;10.200;2023-02-07T10:49:24;25.87;;;20.43;;
20336;SDS011;10326;53.660;10.200;2023-02-07T10:51:54;23.47;;;18.93;;
20336;SDS011;10326;53.660;10.200;2023-02-07T10:54:25;24.40;;;20.20;;
20336;SDS011;10326;53.660;10.200;2023-02-07T10:56:53;23.63;;;18.90;;
20336;SDS011;10326;53.660;10.200;2023-02-07T10:59:28;25.83;;;20.77;;
20336;SDS011;10326;53.660;10.200;2023-02-07T11:02:02;23.00;;;18.77;;
20336;SDS011;10326;53.660;10.200;2023-02-07T11:05:01;25.83;;;20.20;;
20336;SDS011;10326;53.660;10.200;2023-02-07T11:07:32;24.30;;;19.97;;
20336;SDS011;10326;53.660;10.200;2023-02-07T11:10:12;24.83;;;19.77;;
20336;SDS011;10326;53.660;10.200;2023-02-07T11:12:45;24.70;;;20.13;;
20336;SDS011;10326;53.660;10.200;2023-02-07T11:15:15;26.17;;;21.50;;
20336;SDS011;10326;53.660;10.200;2023-02-07T11:17:47;27.30;;;21.60;;
20336;SDS011;10326;53.660;10.200;2023-02-07T11:20:18;25.60;;;21.77;;
20336;SDS011;10326;53.660;10.200;2023-02-07T11:22:50;26.67;;;21.37;;
20336;SDS011;10326;53.660;10.200;2023-02-07T11:25:19;27.17;;;21.93;;
20336;SDS011;10326;53.660;10.200;2023-02-07T11:27:54;24.20;;;19.53;;
20336;SDS011;10326;53.660;10.200;2023-02-07T11:30:21;27.83;;;21.87;;
20336;SDS011;10326;53.660;10.200;2023-02-07T11:32:53;24.83;;;20.77;;
20336;SDS011;10326;53.660;10.200;2023-02-07T11:35:22;26.83;;;22.20;;
20336;SDS011;10326;53.660;10.200;2023-02-07T11:37:57;23.63;;;19.53;;
20336;SDS011;10326;53.660;10.200;2023-02-07T11:40:28;26.23;;;21.17;;
20336;SDS011;10326;53.660;10.200;2023-02-07T11:42:57;28.53;;;22.43;;
20336;SDS011;10326;53.660;10.200;2023-02-07T11:45:29;25.13;;;21.80;;
20336;SDS011;10326;53.660;10.200;2023-02-07T11:47:59;26.57;;;21.67;;
20336;SDS011;10326;53.660;10.200;2023-02-07T11:50:29;28.57;;;22.37;;
20336;SDS011;10326;53.660;10.200;2023-02-07T11:53:00;27.47;;;22.03;;
20336;SDS011;10326;53.660;10.200;2023-02-07T11:55:30;26.13;;;21.47;;
20336;SDS011;10326;53.660;10.200;2023-02-07T11:58:01;27.37;;;21.43;;
20336;SDS011;10326;53.660;10.200;2023-02-07T12:00:36;27.07;;;22.40;;
20336;SDS011;10326;53.660;10.200;2023-02-07T12:03:05;26.80;;;22.33;;
20336;SDS011;10326;53.660;10.200;2023-02-07T12:05:44;26.77;;;22.20;;
20336;SDS011;10326;53.660;10.200;2023-02-07T12:08:16;28.03;;;22.83;;
20336;SDS011;10326;53.660;10.200;2023-02-07T12:10:50;29.23;;;23.57;;
20336;SDS011;10326;53.660;10.200;2023-02-07T12:13:20;29.23;;;23.93;;
20336;SDS011;10326;53.660;10.200;2023-02-07T12:15:53;31.03;;;24.23;;
20336;SDS011;10326;53.660;10.200;2023-02-07T12:18:25;28.57;;;23.80;;
20336;SDS011;10326;53.660;10.200;2023-02-07T12:20:57;27.90;;;23.17;;
20336;SDS011;10326;53.660;10.200;2023-02-07T12:23:35;29.57;;;23.93;;
20336;SDS011;10326;53.660;10.200;2023-02-07T12:26:11;29.37;;;23.97;;
20336;SDS011;10326;53.660;10.200;2023-02-07T12:28:48;30.73;;;24.93;;
20336;SDS011;10326;53.660;10.200;2023-02-07T12:31:39;35.33;;;26.47;;
20336;SDS011;10326;53.660;10.200;2023-02-07T12:34:16;32.73;;;25.67;;
20336;SDS011;10326;53.660;10.200;2023-02-07T12:36:52;34.93;;;26.23;;
20336;SDS011;10326;53.660;10.200;2023-02-07T12:39:25;32.73;;;26.40;;
20336;SDS011;10326;53.660;10.200;2023-02-07T12:42:04;32.85;;;25.73;;
20336;SDS011;10326;53.660;10.200;2023-02-07T12:44:48;28.83;;;23.70;;
20336;SDS011;10326;53.660;10.200;2023-02-07T12:47:23;30.20;;;23.23;;
20336;SDS011;10326;53.660;10.200;2023-02-07T12:52:59;26.38;;;22.27;;
20336;SDS011;10326;53.660;10.200;2023-02-07T12:55:39;27.30;;;22.55;;
20336;SDS011;10326;53.660;10.200;2023-02-07T12:58:29;25.88;;;21.52;;
20336;SDS011;10326;53.660;10.200;2023-02-07T13:01:09;25.35;;;21.23;;
20336;SDS011;10326;53.660;10.200;2023-02-07T13:03:47;25.65;;;21.55;;
20336;SDS011;10326;53.660;10.200;2023-02-07T13:07:02;25.65;;;20.20;;
20336;SDS011;10326;53.660;10.200;2023-02-07T13:09:44;23.73;;;19.88;;
20336;SDS011;10326;53.660;10.200;2023-02-07T13:12:20;23.60;;;19.95;;
20336;SDS011;10326;53.660;10.200;2023-02-07T13:15:01;22.80;;;19.35;;
20336;SDS011;10326;53.660;10.200;2023-02-07T13:17:41;22.30;;;18.75;;
20336;SDS011;10326;53.660;10.200;2023-02-07T13:20:20;20.70;;;18.05;;
20336;SDS011;10326;53.660;10.200;2023-02-07T13:23:00;20.13;;;17.92;;
20336;SDS011;10326;53.660;10.200;2023-02-07T13:25:34;20.50;;;18.33;;
20336;SDS011;10326;53.660;10.200;2023-02-07T13:28:05;21.50;;;18.70;;
20336;SDS011;10326;53.660;10.200;2023-02-07T13:30:40;20.30;;;17.58;;
20336;SDS011;10326;53.660;10.200;2023-02-07T13:33:16;19.45;;;17.30;;
20336;SDS011;10326;53.660;10.200;2023-02-07T13:35:55;17.83;;;15.95;;
20336;SDS011;10326;53.660;10.200;2023-02-07T13:38:34;20.05;;;17.85;;
20336;SDS011;10326;53.660;10.200;2023-02-07T13:41:17;19.63;;;16.50;;
20336;SDS011;10326;53.660;10.200;2023-02-07T13:43:59;19.10;;;17.00;;
20336;SDS011;10326;53.660;10.200;2023-02-07T13:46:41;18.33;;;16.33;;
20336;SDS011;10326;53.660;10.200;2023-02-07T13:49:46;17.58;;;15.05;;
20336;SDS011;10326;53.660;10.200;2023-02-07T13:52:21;17.30;;;15.23;;
20336;SDS011;10326;53.660;10.200;2023-02-07T13:55:01;16.52;;;14.80;;
20336;SDS011;10326;53.660;10.200;2023-02-07T13:57:43;16.02;;;13.75;;
20336;SDS011;10326;53.660;10.200;2023-02-07T14:00:28;15.50;;;13.82;;
20336;SDS011;10326;53.660;10.200;2023-02-07T14:02:59;14.65;;;13.15;;
20336;SDS011;10326;53.660;10.200;2023-02-07T14:05:28;16.67;;;13.35;;
20336;SDS011;10326;53.660;10.200;2023-02-07T14:08:00;15.38;;;13.23;;
20336;SDS011;10326;53.660;10.200;2023-02-07T14:13:19;15.93;;;13.50;;
20336;SDS011;10326;53.660;10.200;2023-02-07T14:15:59;15.57;;;13.65;;
20336;SDS011;10326;53.660;10.200;2023-02-07T14:18:36;16.80;;;15.00;;
20336;SDS011;10326;53.660;10.200;2023-02-07T14:24:18;15.57;;;13.48;;
20336;SDS011;10326;53.660;10.200;2023-02-07T14:27:01;16.65;;;14.85;;
20336;SDS011;10326;53.660;10.200;2023-02-07T14:30:17;15.95;;;14.25;;
20336;SDS011;10326;53.660;10.200;2023-02-07T14:38:59;17.70;;;15.02;;
20336;SDS011;10326;53.660;10.200;2023-02-07T14:41:34;17.25;;;14.43;;
20336;SDS011;10326;53.660;10.200;2023-02-07T14:44:04;17.75;;;14.77;;
20336;SDS011;10326;53.660;10.200;2023-02-07T14:46:33;17.65;;;15.07;;
20336;SDS011;10326;53.660;10.200;2023-02-07T14:49:04;16.58;;;14.68;;
20336;SDS011;10326;53.660;10.200;2023-02-07T14:51:39;18.25;;;15.13;;
20336;SDS011;10326;53.660;10.200;2023-02-07T14:54:14;17.08;;;14.95;;
20336;SDS011;10326;53.660;10.200;2023-02-07T14:56:46;17.38;;;15.00;;
20336;SDS011;10326;53.660;10.200;2023-02-07T14:59:22;18.50;;;15.68;;
20336;SDS011;10326;53.660;10.200;2023-02-07T15:01:54;19.55;;;16.00;;